Main page
METAR-TAF:

METAR-TAF

Airports :

MOD St Athan

St Athan, Wales

latitude: 51-24N, longitude: 003-26W, elevation: 50 m

Current weather observation

The report was made 33 minutes ago, at 23:50 UTC
Wind 12 kt from the East/Northeast
Temperature 16°C
Humidity 63%
Pressure 1021 hPa
Visibility 10 km or more

METAR: EGDX 232350Z AUTO 06012KT 9999 BKN070/// 16/09 Q1021

Time: 01:23 (00:23 UTC)

Forecast

The report was made 10 hours and 49 minutes ago, at 13:34 UTC
Forecast valid from 23 at 15 UTC to 23 at 24 UTC
Wind 10 kt from the East/Northeast
Visibility 10 km or more
no clouds below 1500 m and no cumulonimbus

TAF: EGDX 231334Z 2315/2324 07010KT CAVOK

Weather observations and forecasts of more than 4000 airports (METAR and TAF reports).

The available stations are represented by yellow and red dots on the map.

Hover mouse over dot to see the name of the station.

Then click to see weather observations and forecasts.

To change the map : click on the green buttons with a black cross to zoom in, on the green button with a dash to zoom out, or on the green arrows for adjacent maps.


METAR-TAF: